Time;durP1;ratioP1;P1;durP2;ratioP2;P2;SDS_P1;SDS_P2;PMS_P1;PMS_P2;Temp;Humidity;BMP_temperature;BMP_pressure;BME280_temperature;BME280_humidity;BME280_pressure;Samples;Min_cycle;Max_cycle;Signal;HPM_P1;HPM_P2
2022/01/07 00:00:42;;;;;;;11.60;4.30;;;;;;;;;;6278459;22;20047;-62
2022/01/07 00:03:08;;;;;;;15.93;4.18;;;;;;;;;;6277301;22;20539;-62
2022/01/07 00:05:34;;;;;;;17.65;4.85;;;;;;;;;;6278876;22;20062;-62
2022/01/07 00:08:00;;;;;;;10.13;4.30;;;;;;;;;;6252093;22;20066;-62
2022/01/07 00:10:26;;;;;;;15.20;4.28;;;;;;;;;;6251062;22;20008;-62
2022/01/07 00:12:53;;;;;;;18.30;4.45;;;;;;;;;;6251035;22;20078;-62
2022/01/07 00:15:19;;;;;;;13.57;4.15;;;;;;;;;;6278068;22;20015;-61
2022/01/07 00:17:46;;;;;;;14.07;4.60;;;;;;;;;;6277947;22;20037;-61
2022/01/07 00:20:13;;;;;;;11.95;3.67;;;;;;;;;;6251888;22;20007;-61
2022/01/07 00:22:40;;;;;;;16.30;4.47;;;;;;;;;;6278303;22;20047;-61
2022/01/07 00:25:06;;;;;;;11.48;4.50;;;;;;;;;;6278284;22;20368;-61
2022/01/07 00:27:33;;;;;;;12.88;3.47;;;;;;;;;;6251964;22;20016;-61
2022/01/07 00:29:59;;;;;;;12.13;3.85;;;;;;;;;;6278161;22;20008;-60
2022/01/07 00:32:25;;;;;;;14.65;4.15;;;;;;;;;;6278587;22;20015;-60
2022/01/07 00:34:51;;;;;;;9.57;3.08;;;;;;;;;;6252491;22;20015;-60
2022/01/07 00:37:17;;;;;;;14.50;4.05;;;;;;;;;;6278571;22;20012;-60
2022/01/07 00:39:45;;;;;;;13.88;4.45;;;;;;;;;;6277640;22;20015;-60
2022/01/07 00:42:11;;;;;;;10.98;3.72;;;;;;;;;;6278154;22;20015;-60
2022/01/07 00:44:37;;;;;;;14.27;4.30;;;;;;;;;;6278266;22;20008;-61
2022/01/07 00:47:04;;;;;;;15.77;4.22;;;;;;;;;;6276267;22;20291;-62
2022/01/07 00:49:30;;;;;;;11.35;3.30;;;;;;;;;;6277183;22;20046;-61
2022/01/07 00:51:59;;;;;;;12.00;4.32;;;;;;;;;;6274726;22;20460;-61
2022/01/07 00:54:25;;;;;;;8.35;3.55;;;;;;;;;;6250341;22;20034;-60
2022/01/07 00:56:51;;;;;;;13.48;3.75;;;;;;;;;;6278706;22;20421;-60
2022/01/07 00:59:17;;;;;;;14.68;5.07;;;;;;;;;;6278614;22;20018;-60
2022/01/07 01:01:43;;;;;;;14.13;4.85;;;;;;;;;;6250383;22;20026;-60
2022/01/07 01:04:09;;;;;;;12.05;3.90;;;;;;;;;;6276690;22;20011;-60
2022/01/07 01:06:35;;;;;;;20.33;6.50;;;;;;;;;;6277729;22;20429;-60
2022/01/07 01:09:01;;;;;;;10.52;4.50;;;;;;;;;;6250853;22;20090;-60
2022/01/07 01:11:27;;;;;;;17.13;5.22;;;;;;;;;;6277853;22;20045;-61
2022/01/07 01:13:53;;;;;;;13.73;4.68;;;;;;;;;;6277664;22;20038;-60
2022/01/07 01:16:19;;;;;;;14.35;4.45;;;;;;;;;;6279084;22;20015;-60
2022/01/07 01:18:45;;;;;;;12.55;6.22;;;;;;;;;;6277916;22;20016;-60
2022/01/07 01:21:11;;;;;;;12.48;4.28;;;;;;;;;;6250149;22;20019;-60
2022/01/07 01:23:38;;;;;;;13.43;5.00;;;;;;;;;;6250552;22;20016;-60
2022/01/07 01:26:04;;;;;;;16.67;4.97;;;;;;;;;;6250927;22;20425;-60
2022/01/07 01:28:30;;;;;;;16.20;6.35;;;;;;;;;;6277990;22;20022;-60
2022/01/07 01:30:56;;;;;;;22.23;6.32;;;;;;;;;;6277891;22;20098;-60
2022/01/07 01:33:22;;;;;;;10.18;4.82;;;;;;;;;;6277633;22;20030;-60
2022/01/07 01:35:48;;;;;;;18.63;6.72;;;;;;;;;;6277496;22;20050;-61
2022/01/07 01:38:14;;;;;;;17.95;7.18;;;;;;;;;;6277411;22;20019;-60
2022/01/07 01:40:40;;;;;;;18.30;6.45;;;;;;;;;;6224621;22;20016;-60
2022/01/07 01:43:06;;;;;;;11.00;4.38;;;;;;;;;;6276926;22;20073;-60
2022/01/07 01:45:32;;;;;;;11.95;5.60;;;;;;;;;;6249518;22;20073;-60
2022/01/07 01:47:58;;;;;;;15.60;6.30;;;;;;;;;;6277804;22;20051;-60
2022/01/07 01:50:24;;;;;;;14.18;6.22;;;;;;;;;;6276870;22;20519;-60
2022/01/07 01:52:53;;;;;;;15.40;7.53;;;;;;;;;;6276531;22;20019;-60
2022/01/07 01:55:19;;;;;;;19.27;6.70;;;;;;;;;;6276708;22;20016;-60
2022/01/07 01:57:46;;;;;;;25.30;7.80;;;;;;;;;;6277097;22;20018;-61
2022/01/07 02:00:12;;;;;;;14.90;7.03;;;;;;;;;;6277667;22;20014;-60
2022/01/07 02:02:38;;;;;;;9.57;6.68;;;;;;;;;;6277361;22;20011;-61
2022/01/07 02:05:05;;;;;;;20.55;7.90;;;;;;;;;;6251386;22;20064;-60
2022/01/07 02:07:35;;;;;;;14.68;5.63;;;;;;;;;;6275407;22;20496;-60
2022/01/07 02:10:14;;;;;;;18.90;8.27;;;;;;;;;;6277223;22;20015;-60
2022/01/07 02:12:41;;;;;;;17.42;8.52;;;;;;;;;;6250532;22;20302;-61
2022/01/07 02:15:08;;;;;;;20.60;7.75;;;;;;;;;;6276547;22;20019;-61
2022/01/07 02:17:35;;;;;;;10.82;5.82;;;;;;;;;;6276290;22;20046;-61
2022/01/07 02:20:01;;;;;;;15.13;7.80;;;;;;;;;;6249326;22;20038;-61
2022/01/07 02:22:28;;;;;;;16.83;7.32;;;;;;;;;;6276882;22;20012;-61
2022/01/07 02:24:54;;;;;;;18.40;7.70;;;;;;;;;;6276651;22;20085;-61
2022/01/07 02:27:20;;;;;;;15.65;6.32;;;;;;;;;;6250018;22;20022;-63
2022/01/07 02:29:47;;;;;;;15.52;7.85;;;;;;;;;;6249858;22;20012;-61
2022/01/07 02:32:13;;;;;;;13.57;7.72;;;;;;;;;;6276900;22;20019;-61
2022/01/07 02:34:39;;;;;;;15.15;7.10;;;;;;;;;;6277858;22;20051;-62
2022/01/07 02:37:05;;;;;;;17.48;8.25;;;;;;;;;;6276290;22;20015;-61
2022/01/07 02:39:31;;;;;;;16.90;6.22;;;;;;;;;;6276726;22;20090;-61
2022/01/07 02:41:57;;;;;;;14.05;6.78;;;;;;;;;;6277442;22;20047;-61
2022/01/07 02:44:23;;;;;;;18.60;7.90;;;;;;;;;;6276821;22;20098;-62
2022/01/07 02:46:49;;;;;;;17.02;7.70;;;;;;;;;;6275816;22;20015;-62
2022/01/07 02:49:17;;;;;;;14.77;8.02;;;;;;;;;;6250295;22;20008;-61
2022/01/07 02:51:43;;;;;;;14.57;6.95;;;;;;;;;;6276666;22;20020;-61
2022/01/07 02:54:10;;;;;;;20.85;9.27;;;;;;;;;;6277353;22;20019;-60
2022/01/07 02:56:36;;;;;;;19.02;8.73;;;;;;;;;;6276063;22;20019;-60
2022/01/07 02:59:03;;;;;;;16.30;8.32;;;;;;;;;;6249032;22;20069;-60
2022/01/07 03:01:29;;;;;;;15.90;7.60;;;;;;;;;;6249235;22;20016;-60
2022/01/07 03:03:55;;;;;;;17.50;8.52;;;;;;;;;;6277299;22;20331;-60
2022/01/07 03:06:21;;;;;;;14.40;8.25;;;;;;;;;;6275990;22;20015;-61
2022/01/07 03:08:48;;;;;;;16.58;7.68;;;;;;;;;;6250213;22;20008;-61
2022/01/07 03:11:14;;;;;;;14.85;7.57;;;;;;;;;;6276856;22;20049;-61
2022/01/07 03:13:40;;;;;;;11.00;6.40;;;;;;;;;;6249291;22;20455;-61
2022/01/07 03:16:07;;;;;;;15.05;8.02;;;;;;;;;;6277143;22;20317;-61
2022/01/07 03:18:33;;;;;;;11.57;7.90;;;;;;;;;;6276226;22;20015;-61
2022/01/07 03:21:00;;;;;;;23.02;9.13;;;;;;;;;;6277049;22;20436;-61
2022/01/07 03:23:26;;;;;;;14.65;8.77;;;;;;;;;;6278917;22;20374;-61
2022/01/07 03:25:54;;;;;;;15.70;8.95;;;;;;;;;;6278872;22;20471;-61
2022/01/07 03:28:20;;;;;;;11.05;6.30;;;;;;;;;;6278846;22;20385;-60
2022/01/07 03:30:46;;;;;;;17.10;7.15;;;;;;;;;;6278793;22;20516;-61
2022/01/07 03:33:12;;;;;;;13.05;8.20;;;;;;;;;;6279222;22;20086;-60
2022/01/07 03:35:38;;;;;;;11.90;7.18;;;;;;;;;;6278754;22;20045;-60
2022/01/07 03:38:05;;;;;;;15.23;8.13;;;;;;;;;;6278545;22;20078;-59
2022/01/07 03:40:31;;;;;;;14.52;8.05;;;;;;;;;;6278681;22;20012;-59
2022/01/07 03:42:57;;;;;;;13.43;8.48;;;;;;;;;;6278881;22;20413;-59
2022/01/07 03:45:23;;;;;;;18.67;7.45;;;;;;;;;;6251185;22;20016;-60
2022/01/07 03:47:50;;;;;;;9.52;5.90;;;;;;;;;;6278597;22;20367;-60
2022/01/07 03:50:17;;;;;;;10.15;6.18;;;;;;;;;;6279663;22;20012;-61
2022/01/07 03:52:44;;;;;;;12.50;6.75;;;;;;;;;;6277193;22;20019;-61
2022/01/07 03:55:12;;;;;;;13.95;9.02;;;;;;;;;;6278050;22;20034;-62
2022/01/07 03:57:38;;;;;;;10.25;6.72;;;;;;;;;;6278137;22;20011;-62
2022/01/07 04:00:10;;;;;;;8.23;5.65;;;;;;;;;;6252712;22;20091;-62
2022/01/07 04:02:36;;;;;;;17.42;8.95;;;;;;;;;;6250881;22;20022;-62
2022/01/07 04:05:02;;;;;;;12.98;8.20;;;;;;;;;;6277757;22;20090;-61
2022/01/07 04:07:30;;;;;;;14.73;7.55;;;;;;;;;;6278850;22;20019;-61
2022/01/07 04:09:57;;;;;;;16.10;8.88;;;;;;;;;;6251935;22;20019;-61
2022/01/07 04:12:24;;;;;;;12.93;7.65;;;;;;;;;;6277990;22;20026;-62
2022/01/07 04:14:57;;;;;;;14.02;7.95;;;;;;;;;;6251587;22;20095;-61
2022/01/07 04:17:23;;;;;;;14.63;8.60;;;;;;;;;;6251395;22;20047;-61
2022/01/07 04:19:49;;;;;;;14.57;7.70;;;;;;;;;;6277522;22;20018;-62
2022/01/07 04:22:15;;;;;;;17.83;9.20;;;;;;;;;;6251501;22;20024;-62
2022/01/07 04:24:41;;;;;;;9.23;5.82;;;;;;;;;;6278091;22;20017;-61
2022/01/07 04:27:07;;;;;;;13.40;8.63;;;;;;;;;;6278323;22;20317;-62
2022/01/07 04:29:33;;;;;;;18.58;8.73;;;;;;;;;;6225352;22;20020;-62
2022/01/07 04:32:01;;;;;;;13.82;8.90;;;;;;;;;;6278045;22;20043;-61
2022/01/07 04:34:27;;;;;;;17.27;9.63;;;;;;;;;;6249973;22;20012;-61
2022/01/07 04:36:53;;;;;;;12.05;7.38;;;;;;;;;;6278521;22;20037;-61
2022/01/07 04:39:19;;;;;;;14.98;7.82;;;;;;;;;;6276992;22;20083;-61
2022/01/07 04:41:45;;;;;;;12.25;7.20;;;;;;;;;;6278030;22;20015;-61
2022/01/07 04:44:11;;;;;;;17.77;8.43;;;;;;;;;;6277691;22;20287;-61
2022/01/07 04:46:37;;;;;;;11.52;6.53;;;;;;;;;;6251156;22;20082;-61
2022/01/07 04:49:03;;;;;;;13.77;7.03;;;;;;;;;;6278709;22;20022;-61
2022/01/07 04:51:29;;;;;;;17.48;9.07;;;;;;;;;;6277968;22;20015;-63
2022/01/07 04:53:55;;;;;;;9.35;5.60;;;;;;;;;;6277249;22;20078;-61
2022/01/07 04:56:21;;;;;;;9.73;7.00;;;;;;;;;;6278911;22;20047;-61
2022/01/07 04:58:47;;;;;;;11.85;6.43;;;;;;;;;;6276694;22;20019;-62
2022/01/07 05:01:13;;;;;;;13.93;7.85;;;;;;;;;;6251155;22;20020;-62
2022/01/07 05:03:39;;;;;;;14.25;7.65;;;;;;;;;;6250861;22;20031;-62
2022/01/07 05:06:34;;;;;;;13.02;7.07;;;;;;;;;;6277724;22;20054;-62
2022/01/07 05:08:51;;;;;;;15.35;7.80;;;;;;;;;;6278723;22;20054;-62
2022/01/07 05:11:17;;;;;;;8.30;4.90;;;;;;;;;;6250510;22;20008;-62
2022/01/07 05:13:43;;;;;;;12.55;6.60;;;;;;;;;;6251159;22;20020;-62
2022/01/07 05:16:09;;;;;;;12.93;8.35;;;;;;;;;;6277409;22;20007;-62
2022/01/07 05:18:35;;;;;;;14.68;8.25;;;;;;;;;;6278747;22;20061;-62
2022/01/07 05:21:01;;;;;;;11.73;7.00;;;;;;;;;;6251122;22;20317;-62
2022/01/07 05:23:27;;;;;;;11.65;8.30;;;;;;;;;;6250695;22;20012;-62
2022/01/07 05:25:53;;;;;;;10.55;6.97;;;;;;;;;;6278756;22;20027;-62
2022/01/07 05:28:19;;;;;;;10.90;7.07;;;;;;;;;;6277438;22;20035;-62
2022/01/07 05:30:45;;;;;;;14.48;8.82;;;;;;;;;;6277740;22;20428;-62
2022/01/07 05:33:11;;;;;;;14.88;9.20;;;;;;;;;;6250624;22;20011;-62
2022/01/07 05:35:37;;;;;;;13.35;7.78;;;;;;;;;;6277625;22;20018;-62
2022/01/07 05:38:03;;;;;;;11.00;6.25;;;;;;;;;;6249765;22;20314;-62
2022/01/07 05:40:29;;;;;;;13.93;8.13;;;;;;;;;;6277263;22;20015;-62
2022/01/07 05:42:55;;;;;;;10.88;6.50;;;;;;;;;;6251614;22;20043;-62
2022/01/07 05:45:21;;;;;;;14.07;8.10;;;;;;;;;;6223978;22;20022;-62
2022/01/07 05:47:47;;;;;;;12.65;8.02;;;;;;;;;;6250737;22;20086;-62
2022/01/07 05:50:13;;;;;;;9.43;5.03;;;;;;;;;;6249804;22;20026;-62
2022/01/07 05:52:39;;;;;;;11.43;7.15;;;;;;;;;;6251647;22;20070;-62
2022/01/07 05:55:05;;;;;;;11.70;6.60;;;;;;;;;;6201639;22;20023;-62
2022/01/07 05:57:32;;;;;;;11.10;6.63;;;;;;;;;;6277169;22;20359;-62
2022/01/07 05:59:58;;;;;;;14.23;7.45;;;;;;;;;;6277456;22;20022;-62
2022/01/07 06:02:25;;;;;;;8.43;6.15;;;;;;;;;;6250636;22;20312;-62
2022/01/07 06:04:51;;;;;;;12.77;6.53;;;;;;;;;;6250630;22;20015;-62
2022/01/07 06:07:17;;;;;;;12.30;8.55;;;;;;;;;;6249788;22;20058;-62
2022/01/07 06:09:43;;;;;;;14.02;8.95;;;;;;;;;;6277356;22;20015;-62
2022/01/07 06:12:09;;;;;;;16.85;10.00;;;;;;;;;;6276515;22;20317;-63
2022/01/07 06:14:35;;;;;;;10.13;6.57;;;;;;;;;;6277570;22;20011;-62
2022/01/07 06:17:01;;;;;;;13.43;9.70;;;;;;;;;;6277637;22;20056;-62
2022/01/07 06:19:27;;;;;;;15.80;9.38;;;;;;;;;;6276125;22;20090;-62
2022/01/07 06:21:53;;;;;;;14.18;10.20;;;;;;;;;;6250398;22;20100;-62
2022/01/07 06:24:19;;;;;;;16.05;9.90;;;;;;;;;;6277046;22;20507;-62
2022/01/07 06:26:45;;;;;;;11.48;8.40;;;;;;;;;;6250410;22;20026;-63
2022/01/07 06:29:11;;;;;;;13.68;6.57;;;;;;;;;;6276348;22;20018;-63
2022/01/07 06:31:37;;;;;;;15.10;10.23;;;;;;;;;;6277397;22;20020;-63
2022/01/07 06:34:03;;;;;;;17.50;10.98;;;;;;;;;;6278131;22;20024;-63
2022/01/07 06:36:30;;;;;;;19.70;10.38;;;;;;;;;;6248973;22;20008;-63
2022/01/07 06:38:58;;;;;;;13.80;8.85;;;;;;;;;;6276602;22;20007;-63
2022/01/07 06:41:24;;;;;;;14.70;10.82;;;;;;;;;;6251381;22;20011;-63
2022/01/07 06:43:50;;;;;;;17.02;10.63;;;;;;;;;;6277454;22;20026;-63
2022/01/07 06:46:16;;;;;;;15.98;10.05;;;;;;;;;;6248296;22;20360;-63
2022/01/07 06:48:43;;;;;;;17.80;10.63;;;;;;;;;;6277022;22;20016;-63
2022/01/07 06:51:09;;;;;;;13.88;10.48;;;;;;;;;;6277114;22;20019;-63
2022/01/07 06:53:35;;;;;;;15.80;11.63;;;;;;;;;;6249849;22;20317;-63
2022/01/07 06:56:03;;;;;;;18.55;12.85;;;;;;;;;;6249324;22;20011;-62
2022/01/07 06:58:29;;;;;;;19.42;12.88;;;;;;;;;;6277279;22;20325;-63
2022/01/07 07:00:55;;;;;;;23.95;13.95;;;;;;;;;;6250015;22;20015;-63
2022/01/07 07:03:22;;;;;;;22.15;13.50;;;;;;;;;;6277691;22;20055;-63
2022/01/07 07:05:48;;;;;;;18.38;12.02;;;;;;;;;;6275584;22;20062;-63
2022/01/07 07:08:14;;;;;;;20.52;13.07;;;;;;;;;;6249696;22;20320;-64
2022/01/07 07:10:40;;;;;;;23.25;13.65;;;;;;;;;;6249798;22;20015;-63
2022/01/07 07:13:06;;;;;;;16.48;11.30;;;;;;;;;;6249827;22;20012;-63
2022/01/07 07:15:32;;;;;;;23.17;14.18;;;;;;;;;;6249721;22;20015;-63
2022/01/07 07:17:58;;;;;;;20.48;14.02;;;;;;;;;;6278218;22;20047;-63
2022/01/07 07:20:24;;;;;;;20.45;13.68;;;;;;;;;;6241103;23;20024;-63
2022/01/07 07:22:51;;;;;;;28.67;15.48;;;;;;;;;;6245939;23;20085;-63
2022/01/07 07:25:17;;;;;;;22.88;14.38;;;;;;;;;;6245205;23;20437;-63
2022/01/07 07:27:44;;;;;;;18.83;12.57;;;;;;;;;;6245279;23;20051;-63
2022/01/07 07:30:10;;;;;;;28.67;14.98;;;;;;;;;;6245120;22;20016;-63
2022/01/07 07:32:38;;;;;;;24.67;14.18;;;;;;;;;;6274417;22;20038;-63
2022/01/07 07:37:45;;;;;;;26.92;15.80;;;;;;;;;;6250116;22;20026;-65
2022/01/07 07:40:12;;;;;;;24.75;14.73;;;;;;;;;;6276941;22;20022;-63
2022/01/07 07:42:42;;;;;;;26.50;15.43;;;;;;;;;;6277800;22;20427;-63
2022/01/07 07:45:09;;;;;;;31.70;16.30;;;;;;;;;;6250145;22;20023;-63
2022/01/07 07:47:35;;;;;;;34.45;17.50;;;;;;;;;;6276996;22;20020;-63
2022/01/07 07:50:02;;;;;;;29.67;17.85;;;;;;;;;;6276743;22;20014;-63
2022/01/07 07:52:28;;;;;;;28.67;16.70;;;;;;;;;;6275810;22;20015;-62
2022/01/07 07:54:54;;;;;;;33.72;17.55;;;;;;;;;;6275288;22;20318;-63
2022/01/07 07:57:20;;;;;;;27.73;16.92;;;;;;;;;;6276834;22;20020;-63
2022/01/07 07:59:46;;;;;;;25.70;16.50;;;;;;;;;;6274122;22;20012;-64
2022/01/07 08:02:12;;;;;;;28.15;16.58;;;;;;;;;;6276941;22;20133;-62
2022/01/07 08:04:39;;;;;;;31.05;18.45;;;;;;;;;;6250603;22;20030;-63
2022/01/07 08:07:05;;;;;;;32.00;13.85;;;;;;;;;;6275601;22;20011;-65
2022/01/07 08:09:36;;;;;;;29.08;18.27;;;;;;;;;;6277705;22;20445;-63
2022/01/07 08:12:16;;;;;;;33.65;18.98;;;;;;;;;;6278189;22;20317;-63
2022/01/07 08:17:26;;;;;;;28.90;18.67;;;;;;;;;;6279428;22;20235;-63
2022/01/07 08:19:52;;;;;;;27.75;17.90;;;;;;;;;;6277596;22;20022;-64
2022/01/07 08:22:19;;;;;;;37.78;21.17;;;;;;;;;;6278167;22;20375;-64
2022/01/07 08:24:45;;;;;;;37.38;20.35;;;;;;;;;;6278601;22;20024;-62
2022/01/07 08:27:11;;;;;;;48.35;25.52;;;;;;;;;;6278268;22;20022;-63
2022/01/07 08:29:39;;;;;;;48.35;22.30;;;;;;;;;;6250901;22;20090;-64
2022/01/07 08:35:10;;;;;;;48.08;23.50;;;;;;;;;;6159282;23;20505;-62
2022/01/07 08:37:36;;;;;;;36.95;20.77;;;;;;;;;;6159078;23;20024;-63
2022/01/07 08:40:02;;;;;;;44.60;20.98;;;;;;;;;;6183995;23;20024;-63
2022/01/07 08:42:28;;;;;;;49.83;24.42;;;;;;;;;;6184030;23;20335;-63
2022/01/07 08:44:54;;;;;;;43.72;22.00;;;;;;;;;;6185325;23;20024;-63
2022/01/07 08:47:21;;;;;;;38.33;22.17;;;;;;;;;;6184360;23;20096;-63
2022/01/07 08:49:49;;;;;;;44.88;22.23;;;;;;;;;;6184420;23;20100;-63
2022/01/07 08:52:15;;;;;;;41.45;21.90;;;;;;;;;;6183508;23;20017;-63
2022/01/07 08:54:41;;;;;;;41.13;21.33;;;;;;;;;;6183859;23;20407;-63
2022/01/07 08:57:07;;;;;;;39.53;20.67;;;;;;;;;;6159057;23;20440;-63
2022/01/07 08:59:33;;;;;;;39.38;21.42;;;;;;;;;;6183406;23;20020;-63
2022/01/07 09:01:59;;;;;;;36.47;19.23;;;;;;;;;;6183912;23;20013;-63
2022/01/07 09:04:25;;;;;;;38.03;22.25;;;;;;;;;;6158688;23;20031;-63
2022/01/07 09:06:51;;;;;;;37.80;21.75;;;;;;;;;;6215790;22;20302;-63
2022/01/07 09:09:17;;;;;;;39.50;19.33;;;;;;;;;;6225271;22;20095;-63
2022/01/07 09:11:43;;;;;;;42.28;21.42;;;;;;;;;;6277690;22;20018;-62
2022/01/07 09:14:09;;;;;;;41.53;16.73;;;;;;;;;;6277661;22;20047;-60
2022/01/07 09:16:35;;;;;;;44.50;17.42;;;;;;;;;;6277162;22;20306;-61
2022/01/07 09:19:02;;;;;;;25.95;12.85;;;;;;;;;;6276896;22;20011;-60
2022/01/07 09:21:29;;;;;;;24.00;12.05;;;;;;;;;;6250176;22;20494;-61
2022/01/07 09:23:54;;;;;;;6.43;3.60;;;;;;;;;;6276947;22;20015;-59
2022/01/07 09:26:21;;;;;;;6.65;3.05;;;;;;;;;;6249970;22;20389;-60
2022/01/07 09:28:47;;;;;;;6.93;1.80;;;;;;;;;;6277392;22;20004;-59
2022/01/07 09:31:14;;;;;;;2.65;0.90;;;;;;;;;;6277240;22;20016;-59
2022/01/07 09:33:40;;;;;;;3.08;0.82;;;;;;;;;;6277547;22;20056;-60
2022/01/07 09:36:06;;;;;;;5.57;1.45;;;;;;;;;;6277683;22;20019;-60
2022/01/07 09:38:32;;;;;;;6.65;1.90;;;;;;;;;;6251795;22;20015;-60
2022/01/07 09:40:59;;;;;;;6.88;1.48;;;;;;;;;;6277131;22;20011;-60
2022/01/07 09:43:25;;;;;;;5.55;1.30;;;;;;;;;;6277525;22;20051;-61
2022/01/07 09:45:51;;;;;;;4.43;1.13;;;;;;;;;;6277865;22;20038;-60
2022/01/07 09:48:18;;;;;;;6.28;1.10;;;;;;;;;;6277454;22;20090;-61
2022/01/07 09:50:45;;;;;;;5.55;1.55;;;;;;;;;;6277232;22;20016;-61
2022/01/07 09:53:15;;;;;;;6.82;1.55;;;;;;;;;;6276489;22;20376;-61
2022/01/07 09:55:43;;;;;;;5.90;1.75;;;;;;;;;;6249206;22;20069;-61
2022/01/07 09:58:13;;;;;;;5.47;1.42;;;;;;;;;;6276628;22;20433;-61
2022/01/07 10:00:40;;;;;;;7.57;2.33;;;;;;;;;;6225267;22;20094;-61
2022/01/07 10:03:10;;;;;;;5.40;1.83;;;;;;;;;;6276722;22;20051;-61
2022/01/07 10:05:44;;;;;;;7.85;2.35;;;;;;;;;;6276992;22;20015;-61
2022/01/07 10:08:36;;;;;;;7.47;2.45;;;;;;;;;;6277689;22;20019;-61
2022/01/07 10:11:09;;;;;;;9.10;3.00;;;;;;;;;;6272036;22;20396;-62
2022/01/07 10:13:35;;;;;;;6.65;3.28;;;;;;;;;;6276612;22;20449;-61
2022/01/07 10:16:12;;;;;;;7.72;3.60;;;;;;;;;;6277014;22;20043;-62
2022/01/07 10:18:38;;;;;;;11.25;4.50;;;;;;;;;;6277151;22;20078;-62
2022/01/07 10:21:08;;;;;;;13.02;5.07;;;;;;;;;;6277073;22;20400;-62
2022/01/07 10:23:34;;;;;;;6.68;3.53;;;;;;;;;;6223938;22;20437;-62
2022/01/07 10:26:00;;;;;;;14.73;5.00;;;;;;;;;;6276547;22;20011;-62
2022/01/07 10:28:33;;;;;;;9.63;4.35;;;;;;;;;;6276182;22;20486;-61
2022/01/07 10:31:00;;;;;;;10.88;4.75;;;;;;;;;;6275889;22;20102;-62
2022/01/07 10:33:30;;;;;;;13.02;5.22;;;;;;;;;;6276323;22;20015;-62
2022/01/07 10:35:58;;;;;;;10.50;5.22;;;;;;;;;;6248889;22;20019;-62
2022/01/07 10:38:24;;;;;;;15.25;5.60;;;;;;;;;;6248730;22;20432;-62
2022/01/07 10:40:51;;;;;;;11.20;5.95;;;;;;;;;;6276368;22;20019;-61
2022/01/07 10:43:25;;;;;;;15.45;6.75;;;;;;;;;;6276185;22;20339;-62
2022/01/07 10:45:51;;;;;;;15.43;7.47;;;;;;;;;;6276301;22;20290;-61
2022/01/07 10:48:18;;;;;;;16.15;7.68;;;;;;;;;;6276198;22;20081;-62
2022/01/07 10:50:46;;;;;;;21.48;7.97;;;;;;;;;;6249107;22;20019;-62
2022/01/07 10:53:16;;;;;;;16.70;9.23;;;;;;;;;;6249172;22;20016;-61
2022/01/07 10:55:56;;;;;;;18.17;7.72;;;;;;;;;;6276139;22;20082;-61
2022/01/07 10:58:22;;;;;;;18.63;9.17;;;;;;;;;;6276266;22;20012;-61
2022/01/07 11:00:48;;;;;;;21.05;10.27;;;;;;;;;;6275829;22;20234;-61
2022/01/07 11:03:14;;;;;;;21.08;10.32;;;;;;;;;;6276227;22;20019;-62
2022/01/07 11:05:41;;;;;;;21.42;9.38;;;;;;;;;;6248640;22;20011;-62
2022/01/07 11:08:07;;;;;;;18.58;11.02;;;;;;;;;;6276732;22;20008;-61
2022/01/07 11:10:34;;;;;;;22.25;10.13;;;;;;;;;;6278153;22;20008;-61
2022/01/07 11:13:00;;;;;;;21.35;11.20;;;;;;;;;;6249611;22;20047;-61
2022/01/07 11:15:27;;;;;;;25.50;12.93;;;;;;;;;;6276538;22;20008;-62
2022/01/07 11:17:52;;;;;;;22.20;10.73;;;;;;;;;;6275834;22;20015;-62
2022/01/07 11:20:24;;;;;;;21.98;12.63;;;;;;;;;;6248830;22;20023;-62
2022/01/07 11:22:54;;;;;;;26.30;11.93;;;;;;;;;;6276538;22;20016;-62
2022/01/07 11:25:20;;;;;;;22.80;12.07;;;;;;;;;;6276117;22;20368;-63
2022/01/07 11:27:51;;;;;;;26.70;13.15;;;;;;;;;;6249627;22;20008;-62
2022/01/07 11:30:23;;;;;;;30.77;10.90;;;;;;;;;;6249461;22;20054;-62
2022/01/07 11:32:50;;;;;;;25.17;10.98;;;;;;;;;;6276254;22;20077;-62
2022/01/07 11:35:19;;;;;;;26.75;9.77;;;;;;;;;;6249304;22;20015;-62
2022/01/07 11:37:53;;;;;;;19.85;8.73;;;;;;;;;;6249627;22;20047;-62
2022/01/07 11:40:45;;;;;;;16.75;8.00;;;;;;;;;;6277284;22;20321;-62
2022/01/07 11:43:14;;;;;;;22.55;9.32;;;;;;;;;;6236855;22;20354;-62
2022/01/07 11:45:41;;;;;;;24.25;7.90;;;;;;;;;;6247663;23;20020;-62
2022/01/07 11:48:15;;;;;;;13.25;5.32;;;;;;;;;;6247374;23;20397;-61
2022/01/07 11:50:48;;;;;;;11.52;3.47;;;;;;;;;;6248295;23;20019;-61
2022/01/07 11:53:14;;;;;;;12.68;3.20;;;;;;;;;;6247530;23;20333;-62
2022/01/07 11:55:41;;;;;;;16.10;2.30;;;;;;;;;;6249023;23;20367;-62
2022/01/07 11:58:16;;;;;;;7.28;1.60;;;;;;;;;;6250314;22;20371;-61
2022/01/07 12:00:49;;;;;;;11.95;2.33;;;;;;;;;;6278292;22;20022;-62
2022/01/07 12:03:29;;;;;;;12.55;2.13;;;;;;;;;;6277875;22;20494;-61
2022/01/07 12:05:55;;;;;;;16.20;4.13;;;;;;;;;;6251909;22;20008;-61
2022/01/07 12:08:37;;;;;;;12.75;2.28;;;;;;;;;;6278229;22;20463;-65
2022/01/07 12:11:10;;;;;;;9.50;2.50;;;;;;;;;;6250647;22;20019;-61
2022/01/07 12:13:39;;;;;;;16.83;2.40;;;;;;;;;;6277775;22;20016;-60
2022/01/07 12:16:06;;;;;;;13.15;2.20;;;;;;;;;;6277851;22;20020;-61
2022/01/07 12:18:33;;;;;;;13.13;3.42;;;;;;;;;;6278153;22;20016;-61
2022/01/07 12:20:59;;;;;;;10.73;2.47;;;;;;;;;;6277765;22;20054;-61
2022/01/07 12:23:25;;;;;;;9.93;2.50;;;;;;;;;;6278058;22;20011;-61
2022/01/07 12:25:52;;;;;;;8.88;2.45;;;;;;;;;;6277723;22;20015;-61
2022/01/07 12:28:18;;;;;;;9.10;2.22;;;;;;;;;;6277781;22;20451;-61
2022/01/07 12:30:44;;;;;;;11.60;3.03;;;;;;;;;;6277771;22;20022;-61
2022/01/07 12:33:10;;;;;;;6.10;2.08;;;;;;;;;;6277712;22;20016;-61
2022/01/07 12:35:37;;;;;;;7.65;3.25;;;;;;;;;;6277509;22;20404;-61
2022/01/07 12:38:10;;;;;;;8.32;2.10;;;;;;;;;;6277282;22;20007;-61
2022/01/07 12:40:36;;;;;;;8.77;2.10;;;;;;;;;;6276623;22;20112;-62
2022/01/07 12:43:02;;;;;;;5.72;1.98;;;;;;;;;;6250447;22;20087;-62
2022/01/07 12:45:28;;;;;;;9.65;2.83;;;;;;;;;;6224907;22;20022;-61
2022/01/07 12:47:54;;;;;;;10.90;2.60;;;;;;;;;;6277100;22;20024;-62
2022/01/07 12:50:21;;;;;;;7.53;2.35;;;;;;;;;;6277400;22;20042;-62
2022/01/07 12:52:47;;;;;;;7.68;2.35;;;;;;;;;;6277323;22;20020;-61
2022/01/07 12:55:16;;;;;;;9.00;2.95;;;;;;;;;;6249743;22;20027;-61
2022/01/07 12:57:42;;;;;;;12.25;3.60;;;;;;;;;;6277302;22;20035;-61
2022/01/07 13:00:09;;;;;;;9.35;2.40;;;;;;;;;;6278182;22;20018;-61
2022/01/07 13:02:35;;;;;;;7.05;2.85;;;;;;;;;;6277043;22;20015;-61
2022/01/07 13:05:15;;;;;;;9.48;2.50;;;;;;;;;;6277281;22;20012;-63
2022/01/07 13:07:42;;;;;;;10.55;3.08;;;;;;;;;;6276672;22;20055;-61
2022/01/07 13:10:08;;;;;;;12.77;3.65;;;;;;;;;;6276746;22;20050;-60
2022/01/07 13:12:34;;;;;;;10.32;3.35;;;;;;;;;;6224428;22;20425;-60
2022/01/07 13:15:00;;;;;;;10.52;3.92;;;;;;;;;;6276553;22;20433;-60
2022/01/07 13:17:28;;;;;;;11.98;3.00;;;;;;;;;;6249827;22;20022;-60
2022/01/07 13:19:55;;;;;;;9.45;2.75;;;;;;;;;;6276381;22;20008;-60
2022/01/07 13:22:23;;;;;;;12.63;3.38;;;;;;;;;;6249842;22;20020;-61
2022/01/07 13:24:50;;;;;;;10.38;2.90;;;;;;;;;;6276532;22;20022;-60
2022/01/07 13:27:16;;;;;;;10.07;2.20;;;;;;;;;;6249757;22;20012;-61
2022/01/07 13:29:48;;;;;;;10.02;2.60;;;;;;;;;;6276313;22;20429;-61
2022/01/07 13:32:20;;;;;;;11.95;2.15;;;;;;;;;;6276843;22;20023;-61
2022/01/07 13:34:46;;;;;;;12.52;3.22;;;;;;;;;;6276915;22;20317;-61
2022/01/07 13:37:13;;;;;;;9.57;2.72;;;;;;;;;;6249779;22;20020;-61
2022/01/07 13:39:40;;;;;;;15.05;3.13;;;;;;;;;;6276661;22;20095;-61
2022/01/07 13:42:07;;;;;;;11.18;2.97;;;;;;;;;;6249557;22;20016;-61
2022/01/07 13:44:47;;;;;;;7.07;2.72;;;;;;;;;;6276219;22;20050;-61
2022/01/07 13:47:18;;;;;;;15.52;3.47;;;;;;;;;;6249942;22;20062;-61
2022/01/07 13:49:44;;;;;;;15.52;3.78;;;;;;;;;;6276708;22;20023;-61
2022/01/07 13:52:10;;;;;;;13.25;3.85;;;;;;;;;;6276531;22;20027;-61
2022/01/07 13:54:37;;;;;;;13.10;3.40;;;;;;;;;;6249013;22;20047;-61
2022/01/07 13:57:14;;;;;;;27.80;4.70;;;;;;;;;;6249190;22;20035;-62
2022/01/07 13:59:41;;;;;;;11.32;3.45;;;;;;;;;;6276357;22;20018;-61
2022/01/07 14:02:08;;;;;;;12.75;3.17;;;;;;;;;;6249480;22;20421;-61
2022/01/07 14:04:43;;;;;;;13.38;3.83;;;;;;;;;;6276063;22;20023;-61
2022/01/07 14:07:28;;;;;;;11.70;3.15;;;;;;;;;;6276853;22;20440;-61
2022/01/07 14:10:12;;;;;;;17.90;3.10;;;;;;;;;;6276518;22;20015;-61
2022/01/07 14:12:53;;;;;;;14.90;4.07;;;;;;;;;;6277717;22;20054;-61
2022/01/07 14:15:39;;;;;;;16.00;2.88;;;;;;;;;;6249948;22;20050;-61
2022/01/07 14:18:10;;;;;;;21.20;3.65;;;;;;;;;;6277017;22;20065;-62
2022/01/07 14:20:52;;;;;;;10.82;2.00;;;;;;;;;;6276424;22;20421;-61
2022/01/07 14:23:18;;;;;;;13.65;2.47;;;;;;;;;;6277118;22;20022;-61
2022/01/07 14:25:44;;;;;;;17.95;3.10;;;;;;;;;;6276099;22;20019;-61
2022/01/07 14:28:11;;;;;;;14.27;2.33;;;;;;;;;;6276666;22;20019;-63
2022/01/07 14:30:37;;;;;;;18.35;3.70;;;;;;;;;;6249354;22;20020;-61
2022/01/07 14:33:03;;;;;;;11.52;2.67;;;;;;;;;;6249402;22;20042;-61
2022/01/07 14:35:30;;;;;;;7.97;1.85;;;;;;;;;;6276891;22;20015;-62
2022/01/07 14:37:56;;;;;;;10.40;1.90;;;;;;;;;;6248917;22;20036;-62